Time;durP1;ratioP1;P1;durP2;ratioP2;P2;SDS_P1;SDS_P2;PMS_P1;PMS_P2;Temp;Humidity;BMP_temperature;BMP_pressure;BME280_temperature;BME280_humidity;BME280_pressure;Samples;Min_cycle;Max_cycle;Signal;HPM_P1;HPM_P2
2023/01/25 00:01:25;;;;;;;37.15;31.27;;;0.70;99.90;;;;;;4982369;28;20042;-78
2023/01/25 00:03:51;;;;;;;36.83;30.77;;;0.80;99.90;;;;;;5011359;28;20519;-76
2023/01/25 00:06:16;;;;;;;37.22;30.30;;;0.80;99.90;;;;;;4996165;28;20084;-77
2023/01/25 00:08:42;;;;;;;38.30;31.90;;;0.70;99.90;;;;;;4982594;28;20054;-77
2023/01/25 00:11:07;;;;;;;38.78;32.80;;;0.70;99.90;;;;;;4995832;28;20042;-77
2023/01/25 00:13:33;;;;;;;39.03;31.48;;;0.80;99.90;;;;;;5007290;28;20100;-76
2023/01/25 00:16:03;;;;;;;36.95;30.98;;;0.80;99.90;;;;;;5004313;28;20398;-76
2023/01/25 00:18:29;;;;;;;38.65;31.85;;;0.80;99.90;;;;;;5009560;28;20049;-77
2023/01/25 00:20:55;;;;;;;39.20;31.88;;;0.80;99.90;;;;;;5008798;28;20554;-77
2023/01/25 00:23:21;;;;;;;39.45;32.70;;;0.80;99.90;;;;;;5008922;28;20070;-77
2023/01/25 00:25:46;;;;;;;41.33;33.33;;;0.80;99.90;;;;;;5007757;28;20064;-77
2023/01/25 00:28:13;;;;;;;39.97;32.67;;;0.80;99.90;;;;;;5016704;28;20404;-78
2023/01/25 00:30:38;;;;;;;38.92;33.65;;;0.80;99.90;;;;;;5010515;28;20120;-77
2023/01/25 00:33:16;;;;;;;41.42;33.28;;;0.80;99.90;;;;;;5002901;28;20133;-77
2023/01/25 00:35:44;;;;;;;38.83;32.67;;;0.80;99.90;;;;;;5000739;28;20506;-77
2023/01/25 00:38:32;;;;;;;40.80;33.42;;;0.80;99.90;;;;;;4979989;28;20042;-77
2023/01/25 00:40:58;;;;;;;41.13;33.05;;;0.80;99.90;;;;;;4982834;28;20056;-77
2023/01/25 00:43:23;;;;;;;39.28;32.78;;;0.80;99.90;;;;;;4998728;28;20038;-77
2023/01/25 00:45:49;;;;;;;40.53;32.95;;;0.80;99.90;;;;;;4965457;28;20045;-77
2023/01/25 00:48:15;;;;;;;40.78;33.63;;;0.80;99.90;;;;;;5005924;28;20061;-77
2023/01/25 00:50:40;;;;;;;38.03;32.95;;;0.80;99.90;;;;;;5000359;28;20104;-76
2023/01/25 00:53:06;;;;;;;38.67;31.98;;;0.90;99.90;;;;;;4999987;28;20208;-76
2023/01/25 00:55:31;;;;;;;39.00;30.50;;;0.80;99.90;;;;;;4998513;28;20053;-76
2023/01/25 00:57:57;;;;;;;39.33;31.65;;;0.80;99.90;;;;;;4981518;28;20095;-76
2023/01/25 01:00:23;;;;;;;43.95;34.92;;;0.70;99.90;;;;;;4996671;28;20421;-76
2023/01/25 01:02:48;;;;;;;39.35;32.10;;;0.70;99.90;;;;;;5002942;28;20073;-76
2023/01/25 01:05:14;;;;;;;40.40;32.30;;;0.80;99.90;;;;;;5001664;28;20049;-76
2023/01/25 01:07:39;;;;;;;39.83;32.40;;;0.70;99.90;;;;;;4997958;28;20053;-77
2023/01/25 01:10:06;;;;;;;39.42;32.30;;;0.70;99.90;;;;;;5000440;28;20050;-77
2023/01/25 01:12:31;;;;;;;41.00;33.13;;;0.70;99.90;;;;;;5002757;28;20046;-77
2023/01/25 01:14:57;;;;;;;42.33;33.95;;;0.70;99.90;;;;;;5004192;28;20088;-77
2023/01/25 01:17:23;;;;;;;41.97;33.30;;;0.70;99.90;;;;;;4987066;28;20080;-77
2023/01/25 01:19:49;;;;;;;42.22;33.38;;;0.70;99.90;;;;;;5004965;28;20073;-77
2023/01/25 01:22:15;;;;;;;40.80;33.67;;;0.70;99.90;;;;;;5006674;28;20526;-77
2023/01/25 01:24:41;;;;;;;41.13;33.55;;;0.70;99.90;;;;;;4982333;28;20054;-77
2023/01/25 01:27:07;;;;;;;39.20;31.13;;;0.70;99.90;;;;;;4983979;28;20048;-77
2023/01/25 01:29:32;;;;;;;41.67;32.60;;;0.70;99.90;;;;;;5004623;28;20443;-77
2023/01/25 01:31:58;;;;;;;36.50;30.85;;;0.70;99.90;;;;;;5005515;28;20045;-77
2023/01/25 01:34:24;;;;;;;37.67;31.13;;;0.70;99.90;;;;;;4980272;28;20124;-77
2023/01/25 01:36:50;;;;;;;39.80;31.23;;;0.70;99.90;;;;;;4992129;28;20579;-77
2023/01/25 01:39:15;;;;;;;40.25;31.98;;;0.70;99.90;;;;;;5002375;28;20117;-78
2023/01/25 01:41:41;;;;;;;39.10;31.48;;;0.70;99.90;;;;;;4976222;28;20539;-78
2023/01/25 01:44:14;;;;;;;39.85;31.77;;;0.70;99.90;;;;;;4966405;28;20038;-78
2023/01/25 01:46:41;;;;;;;41.42;32.42;;;0.70;99.90;;;;;;5000248;28;20124;-78
2023/01/25 01:49:13;;;;;;;41.03;32.45;;;0.70;99.90;;;;;;4966969;28;20492;-78
2023/01/25 01:51:47;;;;;;;39.75;31.88;;;0.70;99.90;;;;;;4999570;28;20045;-78
2023/01/25 01:54:24;;;;;;;38.30;31.92;;;0.70;99.90;;;;;;4979976;28;20050;-78
2023/01/25 01:57:15;;;;;;;39.50;30.77;;;0.60;99.90;;;;;;4981822;28;20041;-77
2023/01/25 01:59:50;;;;;;;39.97;31.33;;;0.60;99.90;;;;;;4997715;28;20042;-77
2023/01/25 02:02:16;;;;;;;36.70;27.40;;;0.60;99.90;;;;;;5005882;28;20117;-77
2023/01/25 02:04:45;;;;;;;36.72;29.90;;;0.60;99.90;;;;;;4976372;28;20122;-77
2023/01/25 02:07:20;;;;;;;36.58;29.33;;;0.60;99.90;;;;;;4998530;28;20057;-77
2023/01/25 02:09:46;;;;;;;33.80;28.08;;;0.60;99.90;;;;;;4993235;28;20050;-77
2023/01/25 02:12:13;;;;;;;37.10;29.80;;;0.60;99.90;;;;;;4977151;28;20054;-77
2023/01/25 02:14:46;;;;;;;36.97;30.10;;;0.60;99.90;;;;;;5005775;28;21503;-77
2023/01/25 02:17:12;;;;;;;35.70;29.30;;;0.60;99.90;;;;;;5005147;28;20045;-78
2023/01/25 02:19:52;;;;;;;32.72;28.60;;;0.60;99.90;;;;;;5006825;28;20042;-78
2023/01/25 02:22:29;;;;;;;35.45;30.10;;;0.60;99.90;;;;;;5010337;28;20041;-78
2023/01/25 02:25:08;;;;;;;34.95;29.27;;;0.60;99.90;;;;;;5008377;28;20375;-78
2023/01/25 02:27:38;;;;;;;33.63;27.75;;;0.60;99.90;;;;;;5005632;28;20515;-78
2023/01/25 02:30:05;;;;;;;35.75;29.02;;;0.60;99.90;;;;;;5006489;28;20096;-78
2023/01/25 02:32:31;;;;;;;35.13;28.38;;;0.60;99.90;;;;;;4983837;28;20050;-78
2023/01/25 02:34:57;;;;;;;34.20;28.73;;;0.60;99.90;;;;;;5005794;28;20092;-77
2023/01/25 02:37:23;;;;;;;35.30;29.33;;;0.60;99.90;;;;;;5009686;28;20472;-77
2023/01/25 02:39:49;;;;;;;35.78;29.80;;;0.50;99.90;;;;;;5007698;28;20406;-77
2023/01/25 02:42:15;;;;;;;35.28;29.88;;;0.50;99.90;;;;;;4982873;28;20038;-77
2023/01/25 02:44:42;;;;;;;35.58;27.98;;;0.50;99.90;;;;;;4997752;28;20115;-77
2023/01/25 02:47:38;;;;;;;35.05;28.75;;;0.50;99.90;;;;;;4998257;28;20041;-77
2023/01/25 02:50:04;;;;;;;32.38;26.88;;;0.50;99.90;;;;;;5002567;28;20047;-77
2023/01/25 02:52:30;;;;;;;33.33;27.60;;;0.40;99.90;;;;;;4998232;28;21399;-75
2023/01/25 02:54:55;;;;;;;33.33;28.13;;;0.40;99.90;;;;;;4999042;28;20440;-75
2023/01/25 02:57:21;;;;;;;33.78;28.83;;;0.50;99.90;;;;;;4997405;28;20133;-75
2023/01/25 02:59:46;;;;;;;35.55;27.77;;;0.50;99.90;;;;;;4962827;28;20432;-75
2023/01/25 03:02:13;;;;;;;33.58;27.95;;;0.50;99.90;;;;;;4997274;28;20040;-75
2023/01/25 03:04:38;;;;;;;32.90;27.73;;;0.50;99.90;;;;;;4996436;28;20132;-75
2023/01/25 03:07:04;;;;;;;33.15;28.02;;;0.40;99.90;;;;;;4997389;28;20323;-76
2023/01/25 03:09:29;;;;;;;35.40;28.52;;;0.50;99.90;;;;;;4997053;28;21049;-76
2023/01/25 03:11:55;;;;;;;35.75;28.92;;;0.40;99.90;;;;;;4979641;28;20057;-76
2023/01/25 03:14:21;;;;;;;35.00;29.67;;;0.40;99.90;;;;;;4997273;28;20488;-76
2023/01/25 03:16:46;;;;;;;35.03;29.55;;;0.40;99.90;;;;;;4997887;28;20045;-76
2023/01/25 03:19:12;;;;;;;36.30;27.83;;;0.40;99.90;;;;;;4978497;28;20050;-77
2023/01/25 03:21:39;;;;;;;36.33;28.75;;;0.40;99.90;;;;;;4999004;28;20053;-77
2023/01/25 03:24:05;;;;;;;35.92;28.83;;;0.40;99.90;;;;;;4999152;28;20050;-77
2023/01/25 03:27:09;;;;;;;36.22;28.60;;;0.40;99.90;;;;;;5002264;28;20408;-77
2023/01/25 03:29:16;;;;;;;37.90;29.38;;;0.40;99.90;;;;;;5000971;28;20042;-77
2023/01/25 03:31:42;;;;;;;37.35;30.20;;;0.40;99.90;;;;;;5001935;28;20065;-77
2023/01/25 03:34:07;;;;;;;37.55;29.77;;;0.40;99.90;;;;;;4983211;28;20046;-76
2023/01/25 03:36:33;;;;;;;37.03;29.65;;;0.40;99.90;;;;;;5000848;28;20675;-77
2023/01/25 03:38:58;;;;;;;37.85;31.35;;;0.40;99.90;;;;;;5002440;28;20046;-77
2023/01/25 03:41:24;;;;;;;37.10;30.27;;;0.40;99.90;;;;;;5002684;28;20038;-77
2023/01/25 03:43:50;;;;;;;37.70;30.02;;;0.40;99.90;;;;;;5001150;28;20531;-77
2023/01/25 03:46:15;;;;;;;38.10;30.10;;;0.40;99.90;;;;;;5001108;28;20124;-77
2023/01/25 03:48:41;;;;;;;36.15;29.42;;;0.50;99.90;;;;;;5000693;28;20121;-76
2023/01/25 03:51:06;;;;;;;38.55;30.75;;;0.50;99.90;;;;;;5004573;28;20125;-77
2023/01/25 03:53:32;;;;;;;37.53;30.52;;;0.50;99.90;;;;;;5000400;28;20172;-77
2023/01/25 03:56:07;;;;;;;39.08;31.52;;;0.40;99.90;;;;;;4974739;28;20042;-77
2023/01/25 03:58:33;;;;;;;38.00;30.60;;;0.40;99.90;;;;;;5004679;28;20050;-77
2023/01/25 04:01:00;;;;;;;36.25;29.40;;;0.50;99.90;;;;;;5007292;28;20061;-77
2023/01/25 04:03:27;;;;;;;37.65;30.50;;;0.50;99.90;;;;;;5012901;28;20048;-77
2023/01/25 04:05:53;;;;;;;38.40;30.90;;;0.40;99.90;;;;;;5012953;28;20491;-77
2023/01/25 04:08:19;;;;;;;37.63;30.95;;;0.40;99.90;;;;;;5005282;28;20057;-77
2023/01/25 04:10:51;;;;;;;40.45;31.83;;;0.50;99.90;;;;;;5005508;28;20046;-77
2023/01/25 04:13:16;;;;;;;38.88;30.75;;;0.40;99.90;;;;;;5009476;28;20752;-77
2023/01/25 04:15:42;;;;;;;41.70;32.28;;;0.50;99.90;;;;;;5008457;28;20041;-77
2023/01/25 04:18:08;;;;;;;39.10;31.42;;;0.40;99.90;;;;;;5006007;28;20054;-76
2023/01/25 04:20:34;;;;;;;41.08;32.60;;;0.40;99.90;;;;;;5008408;28;20049;-76
2023/01/25 04:23:00;;;;;;;42.25;33.25;;;0.40;99.90;;;;;;5008738;28;20068;-76
2023/01/25 04:25:25;;;;;;;40.85;32.40;;;0.40;99.90;;;;;;5007775;28;20041;-76
2023/01/25 04:27:51;;;;;;;42.55;32.90;;;0.40;99.90;;;;;;4990766;28;20044;-76
2023/01/25 04:30:17;;;;;;;40.80;33.65;;;0.40;99.90;;;;;;5008179;28;20061;-76
2023/01/25 04:32:42;;;;;;;41.60;32.13;;;0.40;99.90;;;;;;4985259;28;20129;-76
2023/01/25 04:35:08;;;;;;;42.53;33.20;;;0.40;99.90;;;;;;5001217;28;20041;-76
2023/01/25 04:37:34;;;;;;;42.83;33.85;;;0.40;99.90;;;;;;5003909;28;20046;-76
2023/01/25 04:39:59;;;;;;;44.13;33.47;;;0.40;99.90;;;;;;5007460;28;20538;-76
2023/01/25 04:42:25;;;;;;;48.22;33.78;;;0.40;99.90;;;;;;4993883;28;20080;-76
2023/01/25 04:44:50;;;;;;;43.85;34.15;;;0.40;99.90;;;;;;5006660;28;20049;-76
2023/01/25 04:47:16;;;;;;;43.65;34.33;;;0.40;99.90;;;;;;5011408;28;20080;-76
2023/01/25 04:49:42;;;;;;;42.92;32.55;;;0.50;99.90;;;;;;5003021;28;20057;-76
2023/01/25 04:52:07;;;;;;;40.92;32.38;;;0.40;99.90;;;;;;5010910;28;20046;-75
2023/01/25 04:54:33;;;;;;;41.50;31.67;;;0.50;99.90;;;;;;5006240;28;20424;-77
2023/01/25 04:56:58;;;;;;;39.45;31.10;;;0.40;99.90;;;;;;5011802;28;20037;-77
2023/01/25 04:59:24;;;;;;;36.63;29.92;;;0.50;99.90;;;;;;5008736;28;20068;-76
2023/01/25 05:01:49;;;;;;;38.53;30.33;;;0.50;99.90;;;;;;5010492;28;20041;-77
2023/01/25 05:04:15;;;;;;;37.08;29.48;;;0.40;99.90;;;;;;5009312;28;20056;-77
2023/01/25 05:06:40;;;;;;;36.88;29.27;;;0.50;99.90;;;;;;5011984;28;20388;-77
2023/01/25 05:09:08;;;;;;;36.35;29.52;;;0.40;99.90;;;;;;4991482;28;20045;-77
2023/01/25 05:11:34;;;;;;;36.38;28.15;;;0.40;99.90;;;;;;5007077;28;20122;-77
2023/01/25 05:13:59;;;;;;;34.22;26.77;;;0.40;99.90;;;;;;5007094;28;20053;-77
2023/01/25 05:16:25;;;;;;;36.20;28.40;;;0.40;99.90;;;;;;5010513;28;20038;-77
2023/01/25 05:18:50;;;;;;;32.42;26.55;;;0.40;99.90;;;;;;5010567;28;20122;-77
2023/01/25 05:24:00;;;;;;;31.92;26.00;;;0.40;99.90;;;;;;5011380;28;20042;-77
2023/01/25 05:29:11;;;;;;;33.75;26.05;;;0.30;99.90;;;;;;4987565;28;20053;-78
2023/01/25 05:31:36;;;;;;;33.28;26.35;;;0.40;99.90;;;;;;5010660;28;20202;-76
2023/01/25 05:34:02;;;;;;;32.00;26.73;;;0.40;99.90;;;;;;4991468;28;20069;-76
2023/01/25 05:36:27;;;;;;;32.17;25.48;;;0.40;99.90;;;;;;5010945;28;20085;-76
2023/01/25 05:38:53;;;;;;;32.97;26.65;;;0.40;99.90;;;;;;4988559;28;20393;-76
2023/01/25 05:41:19;;;;;;;32.53;25.65;;;0.40;99.90;;;;;;5011000;28;20057;-77
2023/01/25 05:43:47;;;;;;;33.13;27.17;;;0.40;99.90;;;;;;5007301;28;20049;-77
2023/01/25 05:46:13;;;;;;;31.80;25.88;;;0.40;99.90;;;;;;5006056;28;20038;-77
2023/01/25 05:48:39;;;;;;;31.48;26.40;;;0.30;99.90;;;;;;5006858;28;20041;-77
2023/01/25 05:51:04;;;;;;;32.10;25.75;;;0.30;99.90;;;;;;5009169;28;20472;-77
2023/01/25 05:53:30;;;;;;;32.72;26.25;;;0.30;99.90;;;;;;4992616;28;20049;-77
2023/01/25 05:56:02;;;;;;;30.52;25.30;;;0.40;99.90;;;;;;5006077;28;20049;-77
2023/01/25 05:58:27;;;;;;;31.55;25.73;;;0.40;99.90;;;;;;5010111;28;20116;-77
2023/01/25 06:00:53;;;;;;;30.25;25.15;;;0.40;99.90;;;;;;4991339;28;20146;-77
2023/01/25 06:03:19;;;;;;;30.67;25.45;;;0.40;99.90;;;;;;5013860;28;20469;-77
2023/01/25 06:05:44;;;;;;;33.05;25.02;;;0.30;99.90;;;;;;5008528;28;20077;-77
2023/01/25 06:08:10;;;;;;;30.63;25.23;;;0.30;99.90;;;;;;5007388;28;20172;-77
2023/01/25 06:10:35;;;;;;;30.73;25.00;;;0.30;99.90;;;;;;5012448;28;20400;-77
2023/01/25 06:13:01;;;;;;;31.35;25.23;;;0.30;99.90;;;;;;5010530;28;20045;-76
2023/01/25 06:15:26;;;;;;;30.02;23.77;;;0.40;99.90;;;;;;5011840;28;20393;-77
2023/01/25 06:17:55;;;;;;;31.83;25.50;;;0.30;99.90;;;;;;4990259;28;20188;-77
2023/01/25 06:20:21;;;;;;;31.05;25.02;;;0.40;99.90;;;;;;5006150;28;20084;-77
2023/01/25 06:22:51;;;;;;;31.65;24.90;;;0.40;99.90;;;;;;5007969;28;20042;-77
2023/01/25 06:25:17;;;;;;;30.88;24.88;;;0.30;99.90;;;;;;4994487;28;20539;-76
2023/01/25 06:27:42;;;;;;;34.60;24.50;;;0.40;99.90;;;;;;5011847;28;20034;-76
2023/01/25 06:30:09;;;;;;;32.97;25.80;;;0.40;99.90;;;;;;4995054;28;20523;-76
2023/01/25 06:32:34;;;;;;;31.90;25.38;;;0.40;99.90;;;;;;5005298;28;20041;-76
2023/01/25 06:35:00;;;;;;;31.75;25.05;;;0.40;99.90;;;;;;5011212;28;20509;-76
2023/01/25 06:37:26;;;;;;;30.90;25.00;;;0.40;99.90;;;;;;4995953;28;20056;-76
2023/01/25 06:39:52;;;;;;;30.90;24.65;;;0.40;99.90;;;;;;5011405;28;20045;-76
2023/01/25 06:42:18;;;;;;;31.30;25.25;;;0.40;99.90;;;;;;5002719;28;20038;-76
2023/01/25 06:44:44;;;;;;;30.20;24.48;;;0.30;99.90;;;;;;4982009;28;20108;-76
2023/01/25 06:47:11;;;;;;;32.63;25.52;;;0.30;99.90;;;;;;4998383;28;20034;-77
2023/01/25 06:49:36;;;;;;;31.60;24.80;;;0.30;99.90;;;;;;4977643;28;20100;-77
2023/01/25 06:52:02;;;;;;;32.10;24.73;;;0.30;99.90;;;;;;4997765;28;20042;-76
2023/01/25 06:54:28;;;;;;;32.42;25.70;;;0.30;99.90;;;;;;5002792;28;20085;-76
2023/01/25 06:56:53;;;;;;;32.25;25.13;;;0.30;99.90;;;;;;4997859;28;20057;-76
2023/01/25 06:59:19;;;;;;;34.08;25.63;;;0.30;99.90;;;;;;4999277;28;20042;-76
2023/01/25 07:01:45;;;;;;;33.25;25.42;;;0.30;99.90;;;;;;5001792;28;20042;-77
2023/01/25 07:04:11;;;;;;;33.65;25.20;;;0.30;99.90;;;;;;5002024;28;20042;-78
2023/01/25 07:06:37;;;;;;;37.00;25.60;;;0.20;99.90;;;;;;4981511;28;20384;-78
2023/01/25 07:09:09;;;;;;;32.63;24.52;;;0.30;99.90;;;;;;5002922;28;20116;-78
2023/01/25 07:11:35;;;;;;;37.17;26.05;;;0.30;99.90;;;;;;4983752;28;20073;-78
2023/01/25 07:14:01;;;;;;;36.05;25.77;;;0.30;99.90;;;;;;4986740;28;20076;-78
2023/01/25 07:16:27;;;;;;;36.58;26.85;;;0.30;99.90;;;;;;5005094;28;20100;-78
2023/01/25 07:18:53;;;;;;;35.38;25.65;;;0.30;99.90;;;;;;5005114;28;20045;-78
2023/01/25 07:21:21;;;;;;;36.25;26.05;;;0.30;99.90;;;;;;5007005;28;20385;-78
2023/01/25 07:23:51;;;;;;;33.80;25.88;;;0.30;99.90;;;;;;4985998;28;20050;-77
2023/01/25 07:26:24;;;;;;;33.78;26.42;;;0.30;99.90;;;;;;5003300;28;20053;-77
2023/01/25 07:28:51;;;;;;;36.53;25.33;;;0.30;99.90;;;;;;4986643;28;20159;-77
2023/01/25 07:31:18;;;;;;;33.70;26.05;;;0.30;99.90;;;;;;4999847;28;20444;-77
2023/01/25 07:33:50;;;;;;;34.55;26.38;;;0.20;99.90;;;;;;5001127;28;20088;-77
2023/01/25 07:36:16;;;;;;;35.38;27.23;;;0.20;99.90;;;;;;4981864;28;20480;-78
2023/01/25 07:38:42;;;;;;;33.17;25.77;;;0.20;99.90;;;;;;5005861;28;20049;-78
2023/01/25 07:41:07;;;;;;;34.78;26.35;;;0.20;99.90;;;;;;5008636;28;20401;-78
2023/01/25 07:43:33;;;;;;;33.63;25.95;;;0.20;99.90;;;;;;4990367;28;20056;-76
2023/01/25 07:46:00;;;;;;;30.83;24.70;;;0.20;99.90;;;;;;5007351;28;20056;-76
2023/01/25 07:48:27;;;;;;;33.53;25.53;;;0.20;99.90;;;;;;5004498;28;20145;-76
2023/01/25 07:51:10;;;;;;;34.30;25.70;;;0.20;99.90;;;;;;4984267;28;20305;-77
2023/01/25 07:53:40;;;;;;;34.30;26.45;;;0.10;99.90;;;;;;5003002;28;20046;-78
2023/01/25 07:56:06;;;;;;;34.50;25.95;;;0.20;99.90;;;;;;5001147;28;20077;-78
2023/01/25 07:58:33;;;;;;;35.72;26.38;;;0.20;99.90;;;;;;4987441;28;20049;-78
2023/01/25 08:01:09;;;;;;;35.58;27.60;;;0.10;99.90;;;;;;5003418;28;20140;-78
2023/01/25 08:03:35;;;;;;;35.50;26.67;;;0.10;99.90;;;;;;5005289;28;20556;-78
2023/01/25 08:06:03;;;;;;;34.72;26.35;;;0.10;99.90;;;;;;5013956;28;20125;-77
2023/01/25 08:08:32;;;;;;;38.17;26.08;;;0.20;99.90;;;;;;5000987;28;20068;-76
2023/01/25 08:10:58;;;;;;;38.00;28.42;;;0.20;99.90;;;;;;5013788;28;20100;-76
2023/01/25 08:13:24;;;;;;;37.88;28.67;;;0.20;99.90;;;;;;5009282;28;20042;-76
2023/01/25 08:15:54;;;;;;;36.95;28.15;;;0.20;99.90;;;;;;5008407;28;20100;-77
2023/01/25 08:18:19;;;;;;;40.38;28.42;;;0.20;99.90;;;;;;5008429;28;20046;-77
2023/01/25 08:20:45;;;;;;;37.13;29.05;;;0.20;99.90;;;;;;5007088;28;20042;-77
2023/01/25 08:23:11;;;;;;;37.33;29.73;;;0.20;99.90;;;;;;5007511;28;20157;-75
2023/01/25 08:25:38;;;;;;;35.15;27.50;;;0.20;99.90;;;;;;5007861;28;20071;-76
2023/01/25 08:28:04;;;;;;;37.03;27.92;;;0.20;99.90;;;;;;5002914;28;20054;-77
2023/01/25 08:30:30;;;;;;;38.95;28.63;;;0.30;99.90;;;;;;5005603;28;20099;-77
2023/01/25 08:32:55;;;;;;;40.20;29.55;;;0.30;99.90;;;;;;5007664;28;20385;-75
2023/01/25 08:35:21;;;;;;;41.30;28.98;;;0.30;99.90;;;;;;5002015;28;20042;-74
2023/01/25 08:37:46;;;;;;;39.78;29.83;;;0.30;99.90;;;;;;4988289;28;20084;-75
2023/01/25 08:40:13;;;;;;;38.60;28.27;;;0.30;99.90;;;;;;5004104;28;20049;-74
2023/01/25 08:42:39;;;;;;;38.67;29.08;;;0.30;99.90;;;;;;5013891;28;20049;-75
2023/01/25 08:45:05;;;;;;;40.33;30.30;;;0.40;99.90;;;;;;5013201;28;20860;-75
2023/01/25 08:47:30;;;;;;;37.65;28.80;;;0.40;99.90;;;;;;4986817;28;20069;-75
2023/01/25 08:49:56;;;;;;;39.47;29.63;;;0.30;99.90;;;;;;5001850;28;20471;-74
2023/01/25 08:52:22;;;;;;;38.60;29.58;;;0.30;99.90;;;;;;5003150;28;20048;-76
2023/01/25 08:54:47;;;;;;;39.88;29.63;;;0.30;99.90;;;;;;4987815;28;20208;-78
2023/01/25 08:57:13;;;;;;;39.75;30.40;;;0.30;99.90;;;;;;4988096;28;20045;-77
2023/01/25 08:59:38;;;;;;;38.38;29.02;;;0.40;99.90;;;;;;4990573;28;20046;-77
2023/01/25 09:02:04;;;;;;;44.10;30.38;;;0.30;99.90;;;;;;4988428;28;20049;-76
2023/01/25 09:04:30;;;;;;;41.80;30.83;;;0.30;99.90;;;;;;5008738;28;20049;-76
2023/01/25 09:06:56;;;;;;;43.83;31.05;;;0.30;99.90;;;;;;4990541;28;20129;-77
2023/01/25 09:09:23;;;;;;;39.92;30.10;;;0.40;99.90;;;;;;4992533;28;20132;-76
2023/01/25 09:11:49;;;;;;;39.83;29.42;;;0.40;99.90;;;;;;5012579;28;20108;-76
2023/01/25 09:14:15;;;;;;;42.22;31.00;;;0.40;99.90;;;;;;4973406;28;20050;-76
2023/01/25 09:16:40;;;;;;;40.03;29.88;;;0.40;99.90;;;;;;4981008;28;20049;-76
2023/01/25 09:19:06;;;;;;;39.92;30.08;;;0.40;99.90;;;;;;4989222;28;20570;-76
2023/01/25 09:21:32;;;;;;;48.05;29.77;;;0.40;99.90;;;;;;5006848;28;20487;-76
2023/01/25 09:23:59;;;;;;;41.95;30.35;;;0.50;99.90;;;;;;4990886;28;20057;-76
2023/01/25 09:26:25;;;;;;;39.67;29.23;;;0.50;99.90;;;;;;5003271;28;20058;-75
2023/01/25 09:28:52;;;;;;;43.72;28.90;;;0.50;99.90;;;;;;5012287;28;20053;-75
2023/01/25 09:31:18;;;;;;;40.45;29.80;;;0.50;99.90;;;;;;4992174;28;20049;-76
2023/01/25 09:33:44;;;;;;;44.03;29.33;;;0.50;99.90;;;;;;5013152;28;20211;-79
2023/01/25 09:36:10;;;;;;;41.25;28.90;;;0.50;99.90;;;;;;5009802;28;20547;-76
2023/01/25 09:38:36;;;;;;;39.28;29.17;;;0.60;99.90;;;;;;5007380;28;20125;-76
2023/01/25 09:41:32;;;;;;;37.92;28.23;;;0.60;99.90;;;;;;5008479;28;20048;-76
2023/01/25 09:43:58;;;;;;;37.92;28.38;;;0.50;99.90;;;;;;5003721;28;20505;-76
2023/01/25 09:47:00;;;;;;;37.33;26.70;;;0.50;99.90;;;;;;5006224;28;20129;-76
2023/01/25 09:49:43;;;;;;;35.17;26.33;;;0.50;99.90;;;;;;4999047;28;20041;-76
2023/01/25 09:52:14;;;;;;;36.83;27.17;;;0.40;99.90;;;;;;5000794;28;20104;-76
2023/01/25 09:54:43;;;;;;;35.92;26.35;;;0.30;99.90;;;;;;5000131;28;20074;-76
2023/01/25 09:57:15;;;;;;;36.78;26.05;;;0.40;99.90;;;;;;5003261;28;20045;-76
2023/01/25 09:59:42;;;;;;;33.28;24.83;;;0.30;99.90;;;;;;4997233;28;20048;-77
2023/01/25 10:02:19;;;;;;;33.88;25.52;;;0.30;99.90;;;;;;5003229;28;20042;-77
2023/01/25 10:04:46;;;;;;;36.05;25.48;;;0.30;99.90;;;;;;5007568;28;20405;-77
2023/01/25 10:07:29;;;;;;;38.92;27.20;;;0.40;99.90;;;;;;5003719;28;22328;-77
2023/01/25 10:10:17;;;;;;;37.70;26.63;;;0.40;99.90;;;;;;4981442;28;20058;-76
2023/01/25 10:12:43;;;;;;;38.58;26.48;;;0.40;99.90;;;;;;5000908;28;20107;-76
2023/01/25 10:15:20;;;;;;;36.25;25.10;;;0.40;99.90;;;;;;5004853;28;20037;-77
2023/01/25 10:18:10;;;;;;;37.25;25.98;;;0.40;99.90;;;;;;4998967;28;20155;-77
2023/01/25 10:20:45;;;;;;;35.83;26.30;;;0.50;99.90;;;;;;4969438;28;20046;-76
2023/01/25 10:23:48;;;;;;;34.03;24.98;;;0.40;99.90;;;;;;5003042;28;20121;-76
2023/01/25 10:26:21;;;;;;;38.45;24.48;;;0.50;99.90;;;;;;5004879;28;20038;-76
2023/01/25 10:29:18;;;;;;;39.65;26.48;;;0.50;99.90;;;;;;4983138;28;20374;-77
2023/01/25 10:31:49;;;;;;;34.20;25.07;;;0.60;99.90;;;;;;5003838;28;20054;-77
2023/01/25 10:34:39;;;;;;;34.90;25.60;;;0.60;99.90;;;;;;5000175;28;20093;-77
2023/01/25 10:37:13;;;;;;;35.45;26.73;;;0.60;99.90;;;;;;5002937;28;20058;-77
2023/01/25 10:39:47;;;;;;;38.42;27.48;;;0.50;99.90;;;;;;5001035;28;20102;-76
2023/01/25 10:42:15;;;;;;;34.95;26.52;;;0.50;99.90;;;;;;4997587;28;20144;-77
2023/01/25 10:44:40;;;;;;;;;;;0.50;99.90;;;;;;5005942;28;20042;-77
2023/01/25 10:47:15;;;;;;;36.15;25.42;;;0.60;99.90;;;;;;5004230;28;20391;-77
2023/01/25 10:49:52;;;;;;;34.40;24.80;;;0.60;99.90;;;;;;4987364;28;20527;-77
2023/01/25 10:52:25;;;;;;;33.42;24.88;;;0.50;99.90;;;;;;5004652;28;20057;-77
2023/01/25 10:55:24;;;;;;;37.22;25.50;;;0.60;99.90;;;;;;5008042;28;20073;-77
2023/01/25 10:57:54;;;;;;;34.35;24.92;;;0.60;99.90;;;;;;4988192;28;20042;-77
2023/01/25 11:00:28;;;;;;;34.33;25.70;;;0.60;99.90;;;;;;4968274;28;20042;-77
2023/01/25 11:02:54;;;;;;;32.78;24.73;;;0.60;99.90;;;;;;4987621;28;20484;-77
2023/01/25 11:05:37;;;;;;;31.42;23.90;;;0.60;99.90;;;;;;4997768;28;20084;-77
2023/01/25 11:08:22;;;;;;;33.80;24.73;;;0.60;99.90;;;;;;5000123;28;20045;-76
2023/01/25 11:10:49;;;;;;;35.47;24.67;;;0.60;99.90;;;;;;5002181;28;20092;-76
2023/01/25 11:13:15;;;;;;;33.70;24.33;;;0.60;99.90;;;;;;5000711;28;20129;-77
2023/01/25 11:15:46;;;;;;;35.28;26.08;;;0.50;99.90;;;;;;5006192;28;20138;-76
2023/01/25 11:18:16;;;;;;;35.08;26.00;;;0.50;99.90;;;;;;5007168;28;20091;-76
2023/01/25 11:20:42;;;;;;;35.20;25.88;;;0.50;99.90;;;;;;5004588;28;20072;-76
2023/01/25 11:23:25;;;;;;;35.90;25.90;;;0.50;99.90;;;;;;4990682;28;20073;-77
2023/01/25 11:25:51;;;;;;;33.72;25.02;;;0.50;99.90;;;;;;4997142;28;20049;-76
2023/01/25 11:28:22;;;;;;;34.88;26.15;;;0.40;99.90;;;;;;4985175;28;20054;-76
2023/01/25 11:30:50;;;;;;;34.42;25.38;;;0.40;99.90;;;;;;4979921;28;20049;-77
2023/01/25 11:33:18;;;;;;;34.42;24.73;;;0.30;99.90;;;;;;4999810;28;20096;-76
2023/01/25 11:36:11;;;;;;;34.13;25.33;;;0.40;99.90;;;;;;5006743;28;20118;-77
2023/01/25 11:39:02;;;;;;;36.75;25.92;;;0.40;99.90;;;;;;4984298;28;20120;-77
2023/01/25 11:41:46;;;;;;;35.67;25.58;;;0.50;99.90;;;;;;5004425;28;20038;-76
2023/01/25 11:44:45;;;;;;;33.78;25.05;;;0.50;99.90;;;;;;4985217;28;20112;-76
2023/01/25 11:47:35;;;;;;;35.72;25.40;;;0.50;99.90;;;;;;5011019;28;20042;-76
2023/01/25 11:50:09;;;;;;;34.75;25.23;;;0.50;99.90;;;;;;5009641;28;20046;-76
2023/01/25 11:53:09;;;;;;;36.80;26.85;;;0.50;99.90;;;;;;5011378;28;20050;-76
2023/01/25 11:55:44;;;;;;;36.40;26.67;;;0.40;99.90;;;;;;4993289;28;20053;-77
2023/01/25 11:58:16;;;;;;;35.25;25.45;;;0.40;99.90;;;;;;5004503;28;20042;-77
2023/01/25 12:00:53;;;;;;;36.63;26.35;;;0.40;99.90;;;;;;5004949;28;20050;-77
2023/01/25 12:03:41;;;;;;;37.20;26.70;;;0.40;99.90;;;;;;5004687;28;20069;-77
2023/01/25 12:06:06;;;;;;;34.78;24.52;;;0.30;99.90;;;;;;4972122;28;20345;-76
2023/01/25 12:08:50;;;;;;;35.30;25.40;;;0.30;99.90;;;;;;4991680;28;20092;-76
2023/01/25 12:11:35;;;;;;;35.35;25.48;;;0.30;99.90;;;;;;4996813;28;20053;-76
2023/01/25 12:14:26;;;;;;;38.95;26.95;;;0.30;99.90;;;;;;4971725;28;20053;-76
2023/01/25 12:17:19;;;;;;;36.78;26.35;;;0.30;99.90;;;;;;5010646;28;20045;-76
2023/01/25 12:20:03;;;;;;;36.28;26.35;;;0.40;99.90;;;;;;4996412;28;20064;-76
2023/01/25 12:22:50;;;;;;;36.60;26.25;;;0.40;99.90;;;;;;4992256;28;20396;-76
2023/01/25 12:25:20;;;;;;;35.63;26.17;;;0.40;99.90;;;;;;4992221;28;20046;-76
2023/01/25 12:28:08;;;;;;;36.58;25.60;;;0.50;99.90;;;;;;4993864;28;20168;-76
2023/01/25 12:31:13;;;;;;;37.60;26.27;;;0.50;99.90;;;;;;4984052;28;20058;-76
2023/01/25 12:33:52;;;;;;;39.65;26.95;;;0.50;99.90;;;;;;4991119;28;20092;-76
2023/01/25 12:36:25;;;;;;;35.22;25.17;;;0.40;99.90;;;;;;5006180;28;20042;-79
2023/01/25 12:39:02;;;;;;;39.97;26.30;;;0.40;99.90;;;;;;5007728;28;20073;-75
2023/01/25 12:41:37;;;;;;;41.75;27.13;;;0.40;99.90;;;;;;5008073;28;20065;-75
2023/01/25 12:44:07;;;;;;;38.15;27.05;;;0.40;99.90;;;;;;5003899;28;20169;-75
2023/01/25 12:47:03;;;;;;;38.22;25.73;;;0.40;99.90;;;;;;5005465;28;20180;-76
2023/01/25 12:49:47;;;;;;;33.95;23.92;;;0.40;99.90;;;;;;4906895;29;20180;-75
2023/01/25 12:52:31;;;;;;;36.05;24.95;;;0.40;99.90;;;;;;4904126;29;20064;-75
2023/01/25 12:55:03;;;;;;;35.90;24.88;;;0.40;99.90;;;;;;4905429;29;20533;-75
2023/01/25 12:57:47;;;;;;;38.13;25.40;;;0.40;99.90;;;;;;4892778;29;20060;-75